createdAt,value
2022-12-19T00:01:36.813Z,99265.69
2022-12-19T00:04:10.808Z,99292.59
2022-12-19T00:06:43.482Z,99266.00
2022-12-19T00:09:10.687Z,99271.97
2022-12-19T00:11:38.831Z,99267.72
2022-12-19T00:14:06.285Z,99263.78
2022-12-19T00:16:33.265Z,99259.28
2022-12-19T00:19:01.519Z,99241.63
2022-12-19T00:21:31.046Z,99261.69
2022-12-19T00:24:01.983Z,99244.91
2022-12-19T00:26:33.361Z,99237.88
2022-12-19T00:29:11.185Z,99234.31
2022-12-19T00:31:40.997Z,99209.19
2022-12-19T00:34:07.761Z,99206.41
2022-12-19T00:36:35.085Z,99182.50
2022-12-19T00:39:08.295Z,99167.59
2022-12-19T00:41:37.125Z,99155.75
2022-12-19T00:44:06.511Z,99180.19
2022-12-19T00:46:35.353Z,99232.41
2022-12-19T00:49:03.282Z,99190.53
2022-12-19T00:51:32.167Z,99197.03
2022-12-19T00:53:59.317Z,99187.81
2022-12-19T00:56:31.951Z,99180.50
2022-12-19T00:59:03.942Z,99189.78
2022-12-19T01:01:37.291Z,99192.25
2022-12-19T01:06:53.272Z,99174.09
2022-12-19T01:09:21.951Z,99170.78
2022-12-19T01:12:06.985Z,99176.84
2022-12-19T01:14:33.669Z,99171.25
2022-12-19T01:17:00.276Z,99144.66
2022-12-19T01:19:27.811Z,99129.84
2022-12-19T01:21:54.548Z,99106.28
2022-12-19T01:24:21.708Z,99095.69
2022-12-19T01:26:48.368Z,99062.28
2022-12-19T01:29:15.042Z,99126.72
2022-12-19T01:31:41.714Z,99136.97
2022-12-19T01:34:08.423Z,99131.31
2022-12-19T01:36:39.935Z,99147.22
2022-12-19T01:39:07.547Z,99149.06
2022-12-19T01:41:35.005Z,99141.34
2022-12-19T01:44:03.800Z,99140.66
2022-12-19T01:46:36.772Z,99140.13
2022-12-19T01:49:05.303Z,99131.19
2022-12-19T01:51:41.571Z,99128.09
2022-12-19T01:54:11.413Z,99108.66
2022-12-19T01:56:45.114Z,99107.13
2022-12-19T01:59:19.520Z,99079.03
2022-12-19T02:01:50.854Z,99095.34
2022-12-19T02:04:19.250Z,99091.19
2022-12-19T02:06:47.146Z,99077.69
2022-12-19T02:09:14.514Z,99048.59
2022-12-19T02:11:41.233Z,99051.59
2022-12-19T02:14:08.005Z,99040.56
2022-12-19T02:16:50.392Z,99036.13
2022-12-19T02:19:48.555Z,99054.50
2022-12-19T02:22:41.614Z,99030.41
2022-12-19T02:25:23.491Z,99035.94
2022-12-19T02:27:53.257Z,99009.53
2022-12-19T02:30:29.191Z,99018.09
2022-12-19T02:33:24.450Z,98993.06
2022-12-19T02:36:01.258Z,99000.63
2022-12-19T02:38:39.624Z,98999.38
2022-12-19T02:41:14.687Z,99003.84
2022-12-19T02:43:44.948Z,99007.78
2022-12-19T02:46:14.270Z,99004.81
2022-12-19T02:48:42.209Z,99057.69
2022-12-19T02:51:08.909Z,99062.03
2022-12-19T02:53:37.258Z,99048.22
2022-12-19T02:56:16.013Z,99031.34
2022-12-19T02:59:02.915Z,99023.50
2022-12-19T03:02:08.226Z,99002.34
2022-12-19T03:04:44.500Z,98992.59
2022-12-19T03:07:35.631Z,98993.69
2022-12-19T03:10:27.777Z,98929.47
2022-12-19T03:13:07.891Z,98972.84
2022-12-19T03:15:35.876Z,98968.38
2022-12-19T03:18:02.877Z,98931.91
2022-12-19T03:20:44.027Z,98943.34
2022-12-19T03:23:11.655Z,98938.44
2022-12-19T03:25:39.051Z,98953.69
2022-12-19T03:28:13.347Z,98948.78
2022-12-19T03:30:43.219Z,98959.50
2022-12-19T03:33:13.609Z,98934.72
2022-12-19T03:35:43.543Z,98919.31
2022-12-19T03:38:13.221Z,98935.69
2022-12-19T03:40:43.411Z,98936.88
2022-12-19T03:43:12.691Z,98932.56
2022-12-19T03:45:46.033Z,98918.88
2022-12-19T03:48:29.578Z,98905.69
2022-12-19T03:51:08.602Z,98907.78
2022-12-19T03:53:48.307Z,98908.81
2022-12-19T03:56:36.346Z,98915.00
2022-12-19T03:59:26.254Z,98912.16
2022-12-19T04:01:54.700Z,98926.97
2022-12-19T04:04:24.195Z,98917.97
2022-12-19T04:06:52.376Z,98932.78
2022-12-19T04:09:22.794Z,98924.69
2022-12-19T04:11:58.705Z,98911.06
2022-12-19T04:14:35.334Z,98887.91
2022-12-19T04:17:11.030Z,98913.94
2022-12-19T04:19:54.572Z,98888.78
2022-12-19T04:22:35.422Z,98862.41
2022-12-19T04:25:05.049Z,98887.81
2022-12-19T04:27:37.447Z,98890.00
2022-12-19T04:30:05.797Z,98881.84
2022-12-19T04:32:36.173Z,98885.28
2022-12-19T04:35:03.459Z,98876.19
2022-12-19T04:37:31.440Z,98848.28
2022-12-19T04:39:58.671Z,98833.25
2022-12-19T04:42:25.415Z,98848.59
2022-12-19T04:44:52.196Z,98828.91
2022-12-19T04:47:19.158Z,98846.25
2022-12-19T04:49:45.862Z,98839.19
2022-12-19T04:52:12.550Z,98833.97
2022-12-19T04:54:39.214Z,98827.31
2022-12-19T04:57:05.867Z,98830.19
2022-12-19T04:59:32.948Z,98853.56
2022-12-19T05:01:59.914Z,98824.78
2022-12-19T05:04:27.179Z,98799.63
2022-12-19T05:06:54.057Z,98811.41
2022-12-19T05:09:20.769Z,98812.88
2022-12-19T05:11:47.481Z,98818.28
2022-12-19T05:14:15.831Z,98807.69
2022-12-19T05:16:42.558Z,98813.00
2022-12-19T05:19:09.237Z,98814.22
2022-12-19T05:21:35.891Z,98818.31
2022-12-19T05:24:03.105Z,98829.41
2022-12-19T05:26:29.723Z,98818.84
2022-12-19T05:28:56.406Z,98807.22
2022-12-19T05:31:23.332Z,98821.66
2022-12-19T05:33:50.107Z,98798.47
2022-12-19T05:36:18.744Z,98809.16
2022-12-19T05:38:45.454Z,98801.38
2022-12-19T05:41:16.672Z,98803.50
2022-12-19T05:43:44.853Z,98793.34
2022-12-19T05:46:12.238Z,98782.25
2022-12-19T05:48:39.439Z,98774.72
2022-12-19T05:51:06.078Z,98774.28
2022-12-19T05:53:35.198Z,98759.66
2022-12-19T05:56:06.411Z,98769.06
2022-12-19T05:58:35.940Z,98759.72
2022-12-19T06:01:24.200Z,98762.06
2022-12-19T06:03:51.427Z,98759.28
2022-12-19T06:06:21.321Z,98754.34
2022-12-19T06:08:48.167Z,98755.00
2022-12-19T06:11:15.320Z,98757.38
2022-12-19T06:13:42.446Z,98747.47
2022-12-19T06:16:14.497Z,98731.53
2022-12-19T06:18:44.828Z,98718.00
2022-12-19T06:21:22.487Z,98731.91
2022-12-19T06:23:50.670Z,98722.97
2022-12-19T06:26:20.411Z,98718.00
2022-12-19T06:28:51.993Z,98711.50
2022-12-19T06:31:21.152Z,98740.81
2022-12-19T06:33:47.924Z,98728.59
2022-12-19T06:36:16.041Z,98744.50
2022-12-19T06:38:42.738Z,98733.66
2022-12-19T06:41:29.039Z,98715.69
2022-12-19T06:44:04.441Z,98721.94
2022-12-19T06:46:31.367Z,98732.69
2022-12-19T06:48:58.075Z,98728.50
2022-12-19T06:51:24.739Z,98738.94
2022-12-19T06:53:51.477Z,98722.88
2022-12-19T06:56:18.973Z,98721.03
2022-12-19T06:58:46.474Z,98707.72
2022-12-19T07:01:37.976Z,98725.13
2022-12-19T07:04:05.782Z,98706.97
2022-12-19T07:06:32.475Z,98726.97
2022-12-19T07:09:02.328Z,98664.66
2022-12-19T07:11:29.002Z,98652.19
2022-12-19T07:13:55.687Z,98674.63
2022-12-19T07:16:24.106Z,98682.06
2022-12-19T07:18:50.834Z,98675.09
2022-12-19T07:21:17.750Z,98703.16
2022-12-19T07:23:45.225Z,98625.13
2022-12-19T07:26:12.385Z,98679.75
2022-12-19T07:28:39.359Z,98655.81
2022-12-19T07:31:06.229Z,98679.28
2022-12-19T07:33:32.903Z,98675.47
2022-12-19T07:35:59.549Z,98697.38
2022-12-19T07:38:26.270Z,98648.84
2022-12-19T07:40:52.975Z,98667.72
2022-12-19T07:43:19.693Z,98690.75
2022-12-19T07:45:46.424Z,98610.28
2022-12-19T07:48:13.132Z,98671.19
2022-12-19T07:50:40.756Z,98664.25
2022-12-19T07:53:07.442Z,98624.59
2022-12-19T07:55:34.106Z,98635.59
2022-12-19T07:58:00.820Z,98651.16
2022-12-19T08:00:27.583Z,98647.13
2022-12-19T08:02:54.284Z,98632.56
2022-12-19T08:05:21.917Z,98647.63
2022-12-19T08:07:49.224Z,98654.09
2022-12-19T08:10:16.135Z,98688.66
2022-12-19T08:12:42.793Z,98583.28
2022-12-19T08:15:10.020Z,98647.44
2022-12-19T08:17:38.898Z,98650.22
2022-12-19T08:20:07.763Z,98687.88
2022-12-19T08:22:34.874Z,98630.91
2022-12-19T08:25:01.550Z,98687.38
2022-12-19T08:27:28.578Z,98707.59
2022-12-19T08:29:55.412Z,98663.69
2022-12-19T08:32:22.191Z,98626.88
2022-12-19T08:34:50.207Z,98612.31
2022-12-19T08:37:17.746Z,98671.91
2022-12-19T08:39:44.711Z,98641.84
2022-12-19T08:42:11.867Z,98596.56
2022-12-19T08:44:43.343Z,98607.59
2022-12-19T08:47:10.287Z,98622.28
2022-12-19T08:52:18.573Z,98622.75
2022-12-19T08:54:46.048Z,98595.91
2022-12-19T08:57:14.131Z,98611.91
2022-12-19T08:59:41.070Z,98656.59
2022-12-19T09:02:10.972Z,98612.38
2022-12-19T09:05:58.152Z,98593.03
2022-12-19T09:07:30.290Z,98627.22
2022-12-19T09:09:58.948Z,98629.53
2022-12-19T09:12:26.668Z,98618.56
2022-12-19T09:14:53.632Z,98619.69
2022-12-19T09:17:21.281Z,98617.16
2022-12-19T09:19:50.341Z,98659.34
2022-12-19T09:22:17.620Z,98574.94
2022-12-19T09:24:49.464Z,98626.59
2022-12-19T09:27:16.406Z,98604.22
2022-12-19T09:29:44.445Z,98617.19
2022-12-19T09:32:11.297Z,98568.50
2022-12-19T09:34:39.189Z,98589.69
2022-12-19T09:37:16.711Z,98588.84
2022-12-19T09:39:47.601Z,98562.72
2022-12-19T09:42:28.440Z,98588.47
2022-12-19T09:45:33.646Z,98506.94
2022-12-19T09:48:02.626Z,98594.19
2022-12-19T09:50:48.717Z,98613.94
2022-12-19T09:53:39.648Z,98651.16
2022-12-19T09:56:14.384Z,98605.06
2022-12-19T09:58:47.592Z,98604.84
2022-12-19T10:01:17.625Z,98642.50
2022-12-19T10:03:53.501Z,98529.41
2022-12-19T10:07:00.887Z,98641.75
2022-12-19T10:10:44.471Z,98600.84
2022-12-19T10:12:44.231Z,98539.16
2022-12-19T10:15:25.259Z,98607.50
2022-12-19T10:17:58.090Z,98635.81
2022-12-19T10:20:30.694Z,98524.13
2022-12-19T10:23:19.105Z,98629.81
2022-12-19T10:26:19.495Z,98601.91
2022-12-19T10:29:07.914Z,98609.09
2022-12-19T10:31:48.159Z,98609.81
2022-12-19T10:34:22.581Z,98615.56
2022-12-19T10:39:54.366Z,98615.69
2022-12-19T10:42:45.803Z,98614.00
2022-12-19T10:45:22.470Z,98548.38
2022-12-19T10:47:57.492Z,98523.75
2022-12-19T10:50:30.040Z,98553.94
2022-12-19T10:53:08.505Z,98601.19
2022-12-19T10:55:45.487Z,98606.47
2022-12-19T10:58:22.996Z,98567.22
2022-12-19T11:01:10.848Z,98555.06
2022-12-19T11:03:39.368Z,98483.13
2022-12-19T11:06:06.854Z,98546.50
2022-12-19T11:08:37.902Z,98532.69
2022-12-19T11:12:19.479Z,98615.03
2022-12-19T11:19:19.058Z,98548.44
2022-12-19T11:24:02.198Z,98582.94
2022-12-19T11:29:35.058Z,98582.91
2022-12-19T11:29:35.297Z,98450.16
2022-12-19T11:30:37.765Z,98573.53
2022-12-19T11:30:37.868Z,98571.13
2022-12-19T11:34:03.712Z,98581.38
2022-12-19T11:36:40.044Z,98566.50
2022-12-19T11:39:16.764Z,98529.19
2022-12-19T11:41:57.352Z,98536.91
2022-12-19T11:44:30.598Z,98547.44
2022-12-19T11:47:03.902Z,98558.47
2022-12-19T11:49:39.253Z,98478.69
2022-12-19T11:53:02.867Z,98526.41
2022-12-19T11:55:21.741Z,98521.03
2022-12-19T11:57:49.142Z,98475.16
2022-12-19T12:00:22.329Z,98468.50
2022-12-19T12:03:08.158Z,98518.16
2022-12-19T12:05:48.453Z,98500.47
2022-12-19T12:09:06.980Z,98528.63
2022-12-19T12:16:22.824Z,98527.31
2022-12-19T12:19:48.641Z,98519.78
2022-12-19T12:29:58.634Z,98528.59
2022-12-19T12:31:05.880Z,98521.09
2022-12-19T12:31:26.005Z,98508.72
2022-12-19T12:31:40.353Z,98500.38
2022-12-19T12:31:49.207Z,98480.72
2022-12-19T12:35:54.026Z,98514.28
2022-12-19T12:38:12.164Z,98476.44
2022-12-19T12:39:39.655Z,98474.06
2022-12-19T12:42:24.524Z,98474.53
2022-12-19T12:44:56.317Z,98435.44
2022-12-19T12:47:27.863Z,98424.63
2022-12-19T12:50:06.570Z,98487.28
2022-12-19T12:52:39.458Z,98454.41
2022-12-19T12:55:15.855Z,98418.91
2022-12-19T12:57:42.742Z,98425.34
2022-12-19T13:00:16.021Z,98458.22
2022-12-19T13:02:46.100Z,98472.28
2022-12-19T13:05:29.817Z,98405.47
2022-12-19T13:07:56.639Z,98439.38
2022-12-19T13:10:32.028Z,98386.88
2022-12-19T13:13:14.272Z,98395.47
2022-12-19T13:15:44.803Z,98424.41
2022-12-19T13:18:38.083Z,98401.53
2022-12-19T13:21:07.227Z,98361.38
2022-12-19T13:23:45.813Z,98356.53
2022-12-19T13:26:46.029Z,98296.91
2022-12-19T13:29:29.433Z,98358.56
2022-12-19T13:32:15.187Z,98411.41
2022-12-19T13:35:16.933Z,98380.34
2022-12-19T13:40:01.047Z,98396.63
2022-12-19T13:40:43.716Z,98392.72
2022-12-19T13:43:49.215Z,98328.31
2022-12-19T13:46:23.434Z,98384.00
2022-12-19T13:49:01.707Z,98333.44
2022-12-19T13:51:30.157Z,98334.97
2022-12-19T13:53:59.802Z,98352.78
2022-12-19T13:56:30.633Z,98357.81
2022-12-19T13:59:02.544Z,98295.69
2022-12-19T14:01:35.901Z,98314.63
2022-12-19T14:04:14.516Z,98303.94
2022-12-19T14:06:46.514Z,98365.50
2022-12-19T14:11:27.366Z,98367.34
2022-12-19T14:14:00.917Z,98296.97
2022-12-19T14:15:36.773Z,98332.66
2022-12-19T14:18:45.039Z,98275.47
2022-12-19T14:22:11.900Z,98363.03
2022-12-19T14:24:19.255Z,98293.78
2022-12-19T14:28:22.353Z,98217.53
2022-12-19T14:30:30.091Z,98321.97
2022-12-19T14:33:41.968Z,98307.69
2022-12-19T14:36:07.423Z,98336.97
2022-12-19T14:39:27.143Z,98346.72
2022-12-19T14:41:39.925Z,98308.13
2022-12-19T14:52:08.010Z,98252.13
2022-12-19T14:52:51.020Z,98263.44
2022-12-19T14:54:09.565Z,98228.91
2022-12-19T14:54:52.483Z,98239.19
2022-12-19T14:56:13.076Z,98197.69
2022-12-19T14:58:52.135Z,98250.56
2022-12-19T15:01:29.249Z,98328.00
2022-12-19T15:04:51.787Z,98312.66
2022-12-19T15:07:23.642Z,98254.28
2022-12-19T15:11:05.667Z,98304.69
2022-12-19T15:14:56.644Z,98247.22
2022-12-19T15:16:05.958Z,98224.25
2022-12-19T15:18:32.797Z,98307.84
2022-12-19T15:21:02.380Z,98269.22
2022-12-19T15:23:29.728Z,98284.81
2022-12-19T15:26:04.080Z,98296.16
2022-12-19T15:28:52.637Z,98232.13
2022-12-19T15:31:34.959Z,98316.69
2022-12-19T15:36:58.755Z,98234.47
2022-12-19T15:39:26.865Z,98267.63
2022-12-19T15:41:55.252Z,98242.56
2022-12-19T15:44:37.313Z,98272.50
2022-12-19T15:47:07.931Z,98278.00
2022-12-19T15:49:35.474Z,98235.97
2022-12-19T15:52:03.475Z,98279.47
2022-12-19T15:57:39.254Z,98289.13
2022-12-19T16:00:18.632Z,98232.88
2022-12-19T16:05:33.574Z,98266.94
2022-12-19T16:08:00.912Z,98202.31
2022-12-19T16:10:28.353Z,98179.91
2022-12-19T16:12:57.990Z,98218.78
2022-12-19T16:15:29.652Z,98251.38
2022-12-19T16:17:59.168Z,98260.84
2022-12-19T16:20:32.793Z,98253.38
2022-12-19T16:22:59.862Z,98279.94
2022-12-19T16:25:43.082Z,98230.66
2022-12-19T16:28:19.888Z,98190.25
2022-12-19T16:30:47.419Z,98226.47
2022-12-19T16:33:26.065Z,98209.78
2022-12-19T16:36:04.039Z,98180.69
2022-12-19T16:38:32.140Z,98219.88
2022-12-19T16:40:58.889Z,98206.94
2022-12-19T16:43:32.314Z,98154.59
2022-12-19T16:46:01.375Z,98154.66
2022-12-19T16:48:30.305Z,98204.47
2022-12-19T16:50:59.290Z,98194.47
2022-12-19T16:53:26.173Z,98173.44
2022-12-19T16:55:55.658Z,98185.78
2022-12-19T16:58:25.411Z,98207.38
2022-12-19T17:00:55.096Z,98171.97
2022-12-19T17:03:27.960Z,98240.69
2022-12-19T17:05:55.703Z,98186.06
2022-12-19T17:08:23.522Z,98175.50
2022-12-19T17:10:50.465Z,98206.25
2022-12-19T17:13:21.292Z,98173.16
2022-12-19T17:15:54.520Z,98150.00
2022-12-19T17:18:35.018Z,98219.31
2022-12-19T17:21:02.113Z,98178.84
2022-12-19T17:23:32.708Z,98159.94
2022-12-19T17:26:00.585Z,98191.03
2022-12-19T17:28:29.037Z,98142.66
2022-12-19T17:33:41.136Z,98182.47
2022-12-19T17:36:13.144Z,98129.09
2022-12-19T17:38:39.846Z,98169.69
2022-12-19T17:41:06.681Z,98103.16
2022-12-19T17:43:33.382Z,98173.78
2022-12-19T17:46:00.350Z,98201.47
2022-12-19T17:48:32.647Z,98119.38
2022-12-19T17:51:00.038Z,98151.09
2022-12-19T17:53:26.866Z,98153.59
2022-12-19T17:55:53.593Z,98162.69
2022-12-19T17:58:21.763Z,98138.97
2022-12-19T18:00:50.178Z,98172.13
2022-12-19T18:03:26.135Z,98151.88
2022-12-19T18:05:55.030Z,98160.00
2022-12-19T18:08:31.687Z,98233.25
2022-12-19T18:11:02.130Z,98201.00
2022-12-19T18:13:30.699Z,98180.59
2022-12-19T18:16:02.541Z,98152.50
2022-12-19T18:18:32.988Z,98136.44
2022-12-19T18:21:00.801Z,98159.22
2022-12-19T18:23:28.140Z,98197.91
2022-12-19T18:26:01.188Z,98171.28
2022-12-19T18:28:28.718Z,98136.75
2022-12-19T18:31:01.417Z,98166.19
2022-12-19T18:33:31.333Z,98162.16
2022-12-19T18:35:58.026Z,98179.13
2022-12-19T18:38:24.834Z,98221.06
2022-12-19T18:40:54.563Z,98219.19
2022-12-19T18:43:21.289Z,98228.66
2022-12-19T18:45:52.539Z,98184.22
2022-12-19T18:48:19.220Z,98276.31
2022-12-19T18:50:46.274Z,98243.94
2022-12-19T18:53:16.185Z,98227.16
2022-12-19T18:55:42.988Z,98263.56
2022-12-19T18:58:09.855Z,98299.50
2022-12-19T19:00:38.341Z,98278.47
2022-12-19T19:03:12.075Z,98250.53
2022-12-19T19:05:40.422Z,98264.72
2022-12-19T19:08:19.062Z,98337.06
2022-12-19T19:10:47.732Z,98258.78
2022-12-19T19:13:16.569Z,98292.22
2022-12-19T19:15:51.258Z,98312.81
2022-12-19T19:18:22.581Z,98262.63
2022-12-19T19:20:55.712Z,98344.41
2022-12-19T19:23:33.372Z,98293.84
2022-12-19T19:26:00.281Z,98320.19
2022-12-19T19:28:26.978Z,98304.25
2022-12-19T19:30:54.748Z,98331.13
2022-12-19T19:33:28.709Z,98350.38
2022-12-19T19:35:59.093Z,98298.09
2022-12-19T19:38:25.988Z,98388.06
2022-12-19T19:40:52.768Z,98344.88
2022-12-19T19:43:19.532Z,98320.34
2022-12-19T19:45:46.995Z,98331.41
2022-12-19T19:48:13.856Z,98320.22
2022-12-19T19:50:42.223Z,98405.69
2022-12-19T19:53:09.093Z,98399.97
2022-12-19T19:55:36.143Z,98363.53
2022-12-19T19:58:02.853Z,98351.66
2022-12-19T20:00:29.700Z,98385.56
2022-12-19T20:02:56.606Z,98329.13
2022-12-19T20:05:23.464Z,98387.06
2022-12-19T20:07:50.113Z,98389.63
2022-12-19T20:10:16.798Z,98373.78
2022-12-19T20:12:43.511Z,98416.84
2022-12-19T20:15:10.515Z,98441.44
2022-12-19T20:17:37.153Z,98418.25
2022-12-19T20:20:04.456Z,98411.59
2022-12-19T20:22:31.109Z,98455.72
2022-12-19T20:24:57.914Z,98461.78
2022-12-19T20:27:24.695Z,98470.34
2022-12-19T20:29:51.491Z,98487.16
2022-12-19T20:32:18.199Z,98461.38
2022-12-19T20:34:44.986Z,98466.09
2022-12-19T20:37:11.753Z,98460.78
2022-12-19T20:39:38.527Z,98478.31
2022-12-19T20:42:06.596Z,98498.78
2022-12-19T20:44:33.374Z,98462.34
2022-12-19T20:47:00.476Z,98453.78
2022-12-19T20:49:27.529Z,98443.13
2022-12-19T20:51:54.649Z,98521.53
2022-12-19T20:54:21.823Z,98521.88
2022-12-19T20:56:48.549Z,98493.41
2022-12-19T20:59:15.629Z,98587.34
2022-12-19T21:01:42.492Z,98527.84
2022-12-19T21:04:09.405Z,98531.50
2022-12-19T21:06:38.069Z,98579.56
2022-12-19T21:09:06.249Z,98567.06
2022-12-19T21:11:33.735Z,98582.56
2022-12-19T21:14:00.409Z,98611.81
2022-12-19T21:16:27.177Z,98596.09
2022-12-19T21:18:54.011Z,98606.25
2022-12-19T21:21:24.804Z,98648.50
2022-12-19T21:23:52.716Z,98632.06
2022-12-19T21:26:20.217Z,98686.50
2022-12-19T21:28:46.921Z,98644.81
2022-12-19T21:31:15.649Z,98706.13
2022-12-19T21:33:42.753Z,98649.03
2022-12-19T21:36:15.881Z,98684.41
2022-12-19T21:38:42.567Z,98701.72
2022-12-19T21:41:09.493Z,98682.16
2022-12-19T21:43:37.018Z,98717.00
2022-12-19T21:46:09.983Z,98725.09
2022-12-19T21:48:38.664Z,98762.53
2022-12-19T21:51:06.576Z,98739.41
2022-12-19T21:53:35.540Z,98664.88
2022-12-19T21:56:04.699Z,98728.94
2022-12-19T21:58:31.436Z,98682.38
2022-12-19T22:01:09.780Z,98731.09
2022-12-19T22:03:38.149Z,98713.53
2022-12-19T22:06:05.729Z,98797.47
2022-12-19T22:08:33.077Z,98734.16
2022-12-19T22:10:59.827Z,98729.94
2022-12-19T22:13:26.496Z,98743.88
2022-12-19T22:15:53.354Z,98727.53
2022-12-19T22:18:20.159Z,98747.97
2022-12-19T22:20:46.968Z,98746.59
2022-12-19T22:23:13.830Z,98723.44
2022-12-19T22:25:41.211Z,98781.22
2022-12-19T22:28:08.255Z,98723.63
2022-12-19T22:30:36.878Z,98817.97
2022-12-19T22:33:04.928Z,98743.78
2022-12-19T22:35:34.346Z,98779.81
2022-12-19T22:38:01.052Z,98778.09
2022-12-19T22:40:27.757Z,98778.09
2022-12-19T22:42:54.401Z,98711.13
2022-12-19T22:45:21.158Z,98719.59
2022-12-19T22:47:47.823Z,98760.78
2022-12-19T22:50:14.578Z,98791.34
2022-12-19T22:52:41.329Z,98783.13
2022-12-19T22:55:08.483Z,98764.00
2022-12-19T22:57:35.187Z,98788.66
2022-12-19T23:00:01.957Z,98851.25
2022-12-19T23:02:28.781Z,98830.75
2022-12-19T23:04:55.607Z,98851.41
2022-12-19T23:07:22.334Z,98887.09
2022-12-19T23:09:48.984Z,98883.56
2022-12-19T23:12:15.673Z,98824.31
2022-12-19T23:14:42.433Z,98869.59
2022-12-19T23:17:09.140Z,98860.28
2022-12-19T23:19:35.921Z,98863.25
2022-12-19T23:22:02.821Z,98902.75
2022-12-19T23:24:29.532Z,98862.38
2022-12-19T23:26:56.273Z,98904.88
2022-12-19T23:29:23.023Z,98891.81
2022-12-19T23:31:49.869Z,98886.91
2022-12-19T23:34:17.522Z,98839.53
2022-12-19T23:37:10.337Z,98863.47
2022-12-19T23:39:31.604Z,98852.53
2022-12-19T23:41:58.306Z,98878.50
2022-12-19T23:44:25.044Z,98879.94
2022-12-19T23:46:51.978Z,98875.84
2022-12-19T23:49:18.666Z,98889.03
2022-12-19T23:51:45.345Z,98919.31
2022-12-19T23:54:12.044Z,98823.28
2022-12-19T23:56:38.843Z,98874.63
2022-12-19T23:59:05.815Z,98956.53
